Cleveland, North Carolina
Current Conditions -  °F | °C
As of 4:55 AM on Sunday 23 Nov 2014 (Local Time) from KRUQ Reporting Station
Haze Haze  
Wind Chill: 40°   Ceiling: 2100
Heat Index: 40°   Visibility: 5mi
Dew Point: 30°   Wind: 0mph
Humidity: 67%   Direction: NA
Pressure: 30.25"   Gusts: NA
Location:  35.73°N, 80.68°W
Report Text: KRUQ 230955Z AUTO 00000KT 5SM HZ SCT011 BKN021 OVC060 05/M01 A3025 RMK AO2 T00471009
Loading
Personal Weather Stations






























Interactive Weather Map New forecast layout! Learn more

10-Day Weather Forecast

Advertisements
Track Severe Weather on mobile